sensor_id;sensor_type;location;lat;lon;timestamp;temperature;humidity
17405;DHT22;8820;54.604;18.226;2023-03-14T00:00:07;10.80;99.90
17405;DHT22;8820;54.604;18.226;2023-03-14T00:02:37;10.90;99.90
17405;DHT22;8820;54.604;18.226;2023-03-14T00:05:07;10.90;99.90
17405;DHT22;8820;54.604;18.226;2023-03-14T00:07:37;10.90;99.90
17405;DHT22;8820;54.604;18.226;2023-03-14T00:10:10;10.90;99.90
17405;DHT22;8820;54.604;18.226;2023-03-14T00:12:39;10.90;99.90
17405;DHT22;8820;54.604;18.226;2023-03-14T00:15:09;10.90;99.90
17405;DHT22;8820;54.604;18.226;2023-03-14T00:17:38;10.90;99.90
17405;DHT22;8820;54.604;18.226;2023-03-14T00:20:08;10.90;99.90
17405;DHT22;8820;54.604;18.226;2023-03-14T00:22:38;10.90;99.90
17405;DHT22;8820;54.604;18.226;2023-03-14T00:25:10;10.90;99.90
17405;DHT22;8820;54.604;18.226;2023-03-14T00:27:39;10.90;99.90
17405;DHT22;8820;54.604;18.226;2023-03-14T00:30:09;10.90;99.90
17405;DHT22;8820;54.604;18.226;2023-03-14T00:32:38;10.90;99.90
17405;DHT22;8820;54.604;18.226;2023-03-14T00:35:09;10.90;99.90
17405;DHT22;8820;54.604;18.226;2023-03-14T00:37:38;10.90;99.90
17405;DHT22;8820;54.604;18.226;2023-03-14T00:40:09;11.00;99.90
17405;DHT22;8820;54.604;18.226;2023-03-14T00:42:38;11.00;99.90
17405;DHT22;8820;54.604;18.226;2023-03-14T00:45:08;10.90;99.90
17405;DHT22;8820;54.604;18.226;2023-03-14T00:47:37;10.80;99.90
17405;DHT22;8820;54.604;18.226;2023-03-14T00:50:08;10.80;99.90
17405;DHT22;8820;54.604;18.226;2023-03-14T00:52:38;10.80;99.90
17405;DHT22;8820;54.604;18.226;2023-03-14T00:55:08;10.80;99.90
17405;DHT22;8820;54.604;18.226;2023-03-14T00:57:37;10.80;99.90
17405;DHT22;8820;54.604;18.226;2023-03-14T01:00:07;10.80;99.90
17405;DHT22;8820;54.604;18.226;2023-03-14T01:02:38;10.70;99.90
17405;DHT22;8820;54.604;18.226;2023-03-14T01:05:08;10.70;99.90
17405;DHT22;8820;54.604;18.226;2023-03-14T01:07:37;10.70;99.90
17405;DHT22;8820;54.604;18.226;2023-03-14T01:10:09;10.70;99.90
17405;DHT22;8820;54.604;18.226;2023-03-14T01:12:38;10.70;99.90
17405;DHT22;8820;54.604;18.226;2023-03-14T01:15:09;10.70;99.90
17405;DHT22;8820;54.604;18.226;2023-03-14T01:17:38;10.70;99.90
17405;DHT22;8820;54.604;18.226;2023-03-14T01:20:10;10.70;99.90
17405;DHT22;8820;54.604;18.226;2023-03-14T01:22:39;10.80;99.90
17405;DHT22;8820;54.604;18.226;2023-03-14T01:25:13;10.70;99.90
17405;DHT22;8820;54.604;18.226;2023-03-14T01:27:42;10.80;99.90
17405;DHT22;8820;54.604;18.226;2023-03-14T01:30:12;10.80;99.90
17405;DHT22;8820;54.604;18.226;2023-03-14T01:32:41;10.70;99.90
17405;DHT22;8820;54.604;18.226;2023-03-14T01:35:10;10.70;99.90
17405;DHT22;8820;54.604;18.226;2023-03-14T01:37:39;10.80;99.90
17405;DHT22;8820;54.604;18.226;2023-03-14T01:40:15;10.70;99.90
17405;DHT22;8820;54.604;18.226;2023-03-14T01:42:46;10.70;99.90
17405;DHT22;8820;54.604;18.226;2023-03-14T01:48:20;10.70;99.90
17405;DHT22;8820;54.604;18.226;2023-03-14T01:50:49;10.70;99.90
17405;DHT22;8820;54.604;18.226;2023-03-14T01:53:18;10.60;99.90
17405;DHT22;8820;54.604;18.226;2023-03-14T01:55:52;10.60;99.90
17405;DHT22;8820;54.604;18.226;2023-03-14T01:58:24;10.60;99.90
17405;DHT22;8820;54.604;18.226;2023-03-14T02:00:55;10.60;99.90
17405;DHT22;8820;54.604;18.226;2023-03-14T02:03:27;10.60;99.90
17405;DHT22;8820;54.604;18.226;2023-03-14T02:06:00;10.60;99.90
17405;DHT22;8820;54.604;18.226;2023-03-14T02:08:35;10.50;99.90
17405;DHT22;8820;54.604;18.226;2023-03-14T02:11:09;10.50;99.90
17405;DHT22;8820;54.604;18.226;2023-03-14T02:14:02;10.40;99.90
17405;DHT22;8820;54.604;18.226;2023-03-14T02:16:49;10.40;99.90
17405;DHT22;8820;54.604;18.226;2023-03-14T02:19:48;10.40;99.90
17405;DHT22;8820;54.604;18.226;2023-03-14T02:22:37;10.30;99.90
17405;DHT22;8820;54.604;18.226;2023-03-14T02:25:12;10.40;99.90
17405;DHT22;8820;54.604;18.226;2023-03-14T02:27:45;10.40;99.90
17405;DHT22;8820;54.604;18.226;2023-03-14T02:30:16;10.40;99.90
17405;DHT22;8820;54.604;18.226;2023-03-14T02:32:47;10.40;99.90
17405;DHT22;8820;54.604;18.226;2023-03-14T02:35:21;10.30;99.90
17405;DHT22;8820;54.604;18.226;2023-03-14T02:37:55;10.30;99.90
17405;DHT22;8820;54.604;18.226;2023-03-14T02:40:28;10.30;99.90
17405;DHT22;8820;54.604;18.226;2023-03-14T02:42:58;10.30;99.90
17405;DHT22;8820;54.604;18.226;2023-03-14T02:45:42;10.30;99.90
17405;DHT22;8820;54.604;18.226;2023-03-14T02:48:20;10.30;99.90
17405;DHT22;8820;54.604;18.226;2023-03-14T02:50:52;10.30;99.90
17405;DHT22;8820;54.604;18.226;2023-03-14T02:53:24;10.30;99.90
17405;DHT22;8820;54.604;18.226;2023-03-14T02:55:56;10.40;99.90
17405;DHT22;8820;54.604;18.226;2023-03-14T02:58:27;10.30;99.90
17405;DHT22;8820;54.604;18.226;2023-03-14T03:01:05;10.40;99.90
17405;DHT22;8820;54.604;18.226;2023-03-14T03:03:34;10.40;99.90
17405;DHT22;8820;54.604;18.226;2023-03-14T03:06:03;10.40;99.90
17405;DHT22;8820;54.604;18.226;2023-03-14T03:08:32;10.40;99.90
17405;DHT22;8820;54.604;18.226;2023-03-14T03:11:01;10.40;99.90
17405;DHT22;8820;54.604;18.226;2023-03-14T03:13:34;10.40;99.90
17405;DHT22;8820;54.604;18.226;2023-03-14T03:16:05;10.40;99.90
17405;DHT22;8820;54.604;18.226;2023-03-14T03:18:34;10.40;99.90
17405;DHT22;8820;54.604;18.226;2023-03-14T03:21:05;10.40;99.90
17405;DHT22;8820;54.604;18.226;2023-03-14T03:23:36;10.30;99.90
17405;DHT22;8820;54.604;18.226;2023-03-14T03:26:06;10.30;99.90
17405;DHT22;8820;54.604;18.226;2023-03-14T03:28:36;10.30;99.90
17405;DHT22;8820;54.604;18.226;2023-03-14T03:31:09;10.30;99.90
17405;DHT22;8820;54.604;18.226;2023-03-14T03:33:38;10.30;99.90
17405;DHT22;8820;54.604;18.226;2023-03-14T03:36:09;10.30;99.90
17405;DHT22;8820;54.604;18.226;2023-03-14T03:38:39;10.30;99.90
17405;DHT22;8820;54.604;18.226;2023-03-14T03:41:09;10.30;99.90
17405;DHT22;8820;54.604;18.226;2023-03-14T03:43:39;10.30;99.90
17405;DHT22;8820;54.604;18.226;2023-03-14T03:46:09;10.40;99.90
17405;DHT22;8820;54.604;18.226;2023-03-14T03:48:38;10.30;99.90
17405;DHT22;8820;54.604;18.226;2023-03-14T03:51:07;10.40;99.90
17405;DHT22;8820;54.604;18.226;2023-03-14T03:53:39;10.40;99.90
17405;DHT22;8820;54.604;18.226;2023-03-14T03:56:11;10.40;99.90
17405;DHT22;8820;54.604;18.226;2023-03-14T03:58:42;10.40;99.90
17405;DHT22;8820;54.604;18.226;2023-03-14T04:01:11;10.40;99.90
17405;DHT22;8820;54.604;18.226;2023-03-14T04:03:40;10.40;99.90
17405;DHT22;8820;54.604;18.226;2023-03-14T04:06:10;10.40;99.90
17405;DHT22;8820;54.604;18.226;2023-03-14T04:08:42;10.40;99.90
17405;DHT22;8820;54.604;18.226;2023-03-14T04:11:23;10.50;99.90
17405;DHT22;8820;54.604;18.226;2023-03-14T04:13:59;10.50;99.90
17405;DHT22;8820;54.604;18.226;2023-03-14T04:16:29;10.50;99.90
17405;DHT22;8820;54.604;18.226;2023-03-14T04:19:04;10.50;99.90
17405;DHT22;8820;54.604;18.226;2023-03-14T04:21:33;10.50;99.90
17405;DHT22;8820;54.604;18.226;2023-03-14T04:24:02;10.50;99.90
17405;DHT22;8820;54.604;18.226;2023-03-14T04:26:33;10.50;99.90
17405;DHT22;8820;54.604;18.226;2023-03-14T04:29:04;10.50;99.90
17405;DHT22;8820;54.604;18.226;2023-03-14T04:31:32;10.50;99.90
17405;DHT22;8820;54.604;18.226;2023-03-14T04:34:01;10.50;99.90
17405;DHT22;8820;54.604;18.226;2023-03-14T04:36:37;10.50;99.90
17405;DHT22;8820;54.604;18.226;2023-03-14T04:39:11;10.50;99.90
17405;DHT22;8820;54.604;18.226;2023-03-14T04:41:46;10.60;99.90
17405;DHT22;8820;54.604;18.226;2023-03-14T04:44:16;10.50;99.90
17405;DHT22;8820;54.604;18.226;2023-03-14T04:46:45;10.60;99.90
17405;DHT22;8820;54.604;18.226;2023-03-14T04:49:14;10.60;99.90
17405;DHT22;8820;54.604;18.226;2023-03-14T04:51:42;10.60;99.90
17405;DHT22;8820;54.604;18.226;2023-03-14T04:54:11;10.60;99.90
17405;DHT22;8820;54.604;18.226;2023-03-14T04:56:40;10.60;99.90
17405;DHT22;8820;54.604;18.226;2023-03-14T04:59:09;10.60;99.90
17405;DHT22;8820;54.604;18.226;2023-03-14T05:01:42;10.70;99.90
17405;DHT22;8820;54.604;18.226;2023-03-14T05:04:24;10.60;99.90
17405;DHT22;8820;54.604;18.226;2023-03-14T05:07:03;10.60;99.90
17405;DHT22;8820;54.604;18.226;2023-03-14T05:09:50;10.60;99.90
17405;DHT22;8820;54.604;18.226;2023-03-14T05:12:27;10.60;99.90
17405;DHT22;8820;54.604;18.226;2023-03-14T05:15:20;10.60;99.90
17405;DHT22;8820;54.604;18.226;2023-03-14T05:18:06;10.70;99.90
17405;DHT22;8820;54.604;18.226;2023-03-14T05:21:04;10.60;99.90
17405;DHT22;8820;54.604;18.226;2023-03-14T05:24:05;10.60;99.90
17405;DHT22;8820;54.604;18.226;2023-03-14T05:27:03;10.50;99.90
17405;DHT22;8820;54.604;18.226;2023-03-14T05:30:01;10.60;99.90
17405;DHT22;8820;54.604;18.226;2023-03-14T05:32:57;10.60;99.90
17405;DHT22;8820;54.604;18.226;2023-03-14T05:35:43;10.60;99.90
17405;DHT22;8820;54.604;18.226;2023-03-14T05:38:41;10.60;99.90
17405;DHT22;8820;54.604;18.226;2023-03-14T05:41:16;10.60;99.90
17405;DHT22;8820;54.604;18.226;2023-03-14T05:44:03;10.70;99.90
17405;DHT22;8820;54.604;18.226;2023-03-14T05:46:35;10.80;99.90
17405;DHT22;8820;54.604;18.226;2023-03-14T05:49:24;10.80;99.90
17405;DHT22;8820;54.604;18.226;2023-03-14T05:52:13;10.70;99.90
17405;DHT22;8820;54.604;18.226;2023-03-14T05:55:05;10.80;99.90
17405;DHT22;8820;54.604;18.226;2023-03-14T05:58:09;10.80;99.90
17405;DHT22;8820;54.604;18.226;2023-03-14T06:01:01;10.70;99.90
17405;DHT22;8820;54.604;18.226;2023-03-14T06:03:52;10.80;99.90
17405;DHT22;8820;54.604;18.226;2023-03-14T06:06:21;10.70;99.90
17405;DHT22;8820;54.604;18.226;2023-03-14T06:08:51;10.70;99.90
17405;DHT22;8820;54.604;18.226;2023-03-14T06:11:20;10.80;99.90
17405;DHT22;8820;54.604;18.226;2023-03-14T06:13:49;10.80;99.90
17405;DHT22;8820;54.604;18.226;2023-03-14T06:16:18;10.80;99.90
17405;DHT22;8820;54.604;18.226;2023-03-14T06:18:50;10.90;99.90
17405;DHT22;8820;54.604;18.226;2023-03-14T06:21:21;10.90;99.90
17405;DHT22;8820;54.604;18.226;2023-03-14T06:23:52;10.90;99.90
17405;DHT22;8820;54.604;18.226;2023-03-14T06:26:22;10.90;99.90
17405;DHT22;8820;54.604;18.226;2023-03-14T06:28:51;11.00;99.90
17405;DHT22;8820;54.604;18.226;2023-03-14T06:31:29;11.00;99.90
17405;DHT22;8820;54.604;18.226;2023-03-14T06:34:01;11.10;99.90
17405;DHT22;8820;54.604;18.226;2023-03-14T06:36:31;11.00;99.90
17405;DHT22;8820;54.604;18.226;2023-03-14T06:39:01;11.00;99.90
17405;DHT22;8820;54.604;18.226;2023-03-14T06:41:33;11.00;99.90
17405;DHT22;8820;54.604;18.226;2023-03-14T06:44:03;11.00;99.90
17405;DHT22;8820;54.604;18.226;2023-03-14T06:46:32;10.90;99.90
17405;DHT22;8820;54.604;18.226;2023-03-14T06:49:04;10.90;99.90
17405;DHT22;8820;54.604;18.226;2023-03-14T06:51:33;10.90;99.90
17405;DHT22;8820;54.604;18.226;2023-03-14T06:54:05;11.00;99.90
17405;DHT22;8820;54.604;18.226;2023-03-14T06:56:35;11.10;99.90
17405;DHT22;8820;54.604;18.226;2023-03-14T06:59:04;11.10;99.90
17405;DHT22;8820;54.604;18.226;2023-03-14T07:01:33;11.10;99.90
17405;DHT22;8820;54.604;18.226;2023-03-14T07:04:09;11.20;99.90
17405;DHT22;8820;54.604;18.226;2023-03-14T07:06:42;11.30;99.90
17405;DHT22;8820;54.604;18.226;2023-03-14T07:09:15;11.30;99.90
17405;DHT22;8820;54.604;18.226;2023-03-14T07:11:53;11.40;99.90
17405;DHT22;8820;54.604;18.226;2023-03-14T07:14:22;11.40;99.90
17405;DHT22;8820;54.604;18.226;2023-03-14T07:16:51;11.50;99.90
17405;DHT22;8820;54.604;18.226;2023-03-14T07:19:20;11.60;99.90
17405;DHT22;8820;54.604;18.226;2023-03-14T07:21:49;11.50;99.90
17405;DHT22;8820;54.604;18.226;2023-03-14T07:24:24;11.50;99.90
17405;DHT22;8820;54.604;18.226;2023-03-14T07:26:52;11.40;99.90
17405;DHT22;8820;54.604;18.226;2023-03-14T07:29:21;11.50;99.90
17405;DHT22;8820;54.604;18.226;2023-03-14T07:31:50;11.50;99.90
17405;DHT22;8820;54.604;18.226;2023-03-14T07:34:20;11.60;99.90
17405;DHT22;8820;54.604;18.226;2023-03-14T07:36:49;11.70;99.90
17405;DHT22;8820;54.604;18.226;2023-03-14T07:39:18;11.70;99.90
17405;DHT22;8820;54.604;18.226;2023-03-14T07:42:20;11.80;99.90
17405;DHT22;8820;54.604;18.226;2023-03-14T07:45:10;11.80;99.90
17405;DHT22;8820;54.604;18.226;2023-03-14T07:47:39;11.90;99.90
17405;DHT22;8820;54.604;18.226;2023-03-14T07:50:09;12.00;99.90
17405;DHT22;8820;54.604;18.226;2023-03-14T07:52:38;12.10;99.90
17405;DHT22;8820;54.604;18.226;2023-03-14T07:55:07;12.10;99.90
17405;DHT22;8820;54.604;18.226;2023-03-14T07:57:37;12.10;99.90
17405;DHT22;8820;54.604;18.226;2023-03-14T08:00:07;12.10;99.90
17405;DHT22;8820;54.604;18.226;2023-03-14T08:02:39;12.10;99.90
17405;DHT22;8820;54.604;18.226;2023-03-14T08:05:08;12.10;99.90
17405;DHT22;8820;54.604;18.226;2023-03-14T08:07:37;12.10;99.90
17405;DHT22;8820;54.604;18.226;2023-03-14T08:10:08;12.10;99.90
17405;DHT22;8820;54.604;18.226;2023-03-14T08:12:38;12.30;99.90
17405;DHT22;8820;54.604;18.226;2023-03-14T08:15:07;12.20;99.90
17405;DHT22;8820;54.604;18.226;2023-03-14T08:17:36;12.30;99.90
17405;DHT22;8820;54.604;18.226;2023-03-14T08:20:05;12.40;99.90
17405;DHT22;8820;54.604;18.226;2023-03-14T08:22:36;12.40;99.90
17405;DHT22;8820;54.604;18.226;2023-03-14T08:25:06;12.70;99.90
17405;DHT22;8820;54.604;18.226;2023-03-14T08:27:35;12.80;99.90
17405;DHT22;8820;54.604;18.226;2023-03-14T08:30:09;12.90;99.90
17405;DHT22;8820;54.604;18.226;2023-03-14T08:32:38;12.80;99.90
17405;DHT22;8820;54.604;18.226;2023-03-14T08:35:08;12.80;99.90
17405;DHT22;8820;54.604;18.226;2023-03-14T08:37:37;12.80;99.90
17405;DHT22;8820;54.604;18.226;2023-03-14T08:40:07;13.00;99.90
17405;DHT22;8820;54.604;18.226;2023-03-14T08:42:37;13.10;99.90
17405;DHT22;8820;54.604;18.226;2023-03-14T08:45:10;13.20;99.90
17405;DHT22;8820;54.604;18.226;2023-03-14T08:47:39;13.30;99.90
17405;DHT22;8820;54.604;18.226;2023-03-14T08:50:09;13.30;99.90
17405;DHT22;8820;54.604;18.226;2023-03-14T08:52:42;13.40;99.90
17405;DHT22;8820;54.604;18.226;2023-03-14T08:55:11;13.40;99.90
17405;DHT22;8820;54.604;18.226;2023-03-14T08:57:40;13.40;99.90
17405;DHT22;8820;54.604;18.226;2023-03-14T09:00:11;13.60;99.90
17405;DHT22;8820;54.604;18.226;2023-03-14T09:02:42;13.60;99.90
17405;DHT22;8820;54.604;18.226;2023-03-14T09:05:11;13.50;99.90
17405;DHT22;8820;54.604;18.226;2023-03-14T09:07:41;13.70;99.90
17405;DHT22;8820;54.604;18.226;2023-03-14T09:10:10;13.90;99.90
17405;DHT22;8820;54.604;18.226;2023-03-14T09:12:39;14.00;99.90
17405;DHT22;8820;54.604;18.226;2023-03-14T09:15:10;14.10;99.90
17405;DHT22;8820;54.604;18.226;2023-03-14T09:17:39;14.40;99.90
17405;DHT22;8820;54.604;18.226;2023-03-14T09:20:08;14.50;99.90
17405;DHT22;8820;54.604;18.226;2023-03-14T09:22:37;14.50;99.90
17405;DHT22;8820;54.604;18.226;2023-03-14T09:25:07;14.70;99.90
17405;DHT22;8820;54.604;18.226;2023-03-14T09:27:36;14.60;99.90
17405;DHT22;8820;54.604;18.226;2023-03-14T09:30:05;14.40;99.90
17405;DHT22;8820;54.604;18.226;2023-03-14T09:32:35;14.50;99.90
17405;DHT22;8820;54.604;18.226;2023-03-14T09:35:05;14.50;99.90
17405;DHT22;8820;54.604;18.226;2023-03-14T09:37:34;14.50;99.90
17405;DHT22;8820;54.604;18.226;2023-03-14T09:40:03;14.30;99.90
17405;DHT22;8820;54.604;18.226;2023-03-14T09:42:37;14.40;99.90
17405;DHT22;8820;54.604;18.226;2023-03-14T09:45:14;14.30;99.90
17405;DHT22;8820;54.604;18.226;2023-03-14T09:47:46;14.10;99.90
17405;DHT22;8820;54.604;18.226;2023-03-14T09:50:26;14.10;99.90
17405;DHT22;8820;54.604;18.226;2023-03-14T09:52:58;14.10;99.90
17405;DHT22;8820;54.604;18.226;2023-03-14T09:55:29;14.40;99.90
17405;DHT22;8820;54.604;18.226;2023-03-14T09:58:03;15.10;99.90
17405;DHT22;8820;54.604;18.226;2023-03-14T10:00:33;15.40;99.90
17405;DHT22;8820;54.604;18.226;2023-03-14T10:03:24;15.50;99.90
17405;DHT22;8820;54.604;18.226;2023-03-14T10:05:55;15.50;99.90
17405;DHT22;8820;54.604;18.226;2023-03-14T10:08:24;15.50;99.90
17405;DHT22;8820;54.604;18.226;2023-03-14T10:10:53;15.50;99.90
17405;DHT22;8820;54.604;18.226;2023-03-14T10:13:23;15.40;99.90
17405;DHT22;8820;54.604;18.226;2023-03-14T10:15:55;15.10;99.90
17405;DHT22;8820;54.604;18.226;2023-03-14T10:18:31;15.00;99.90
17405;DHT22;8820;54.604;18.226;2023-03-14T10:21:05;15.60;99.90
17405;DHT22;8820;54.604;18.226;2023-03-14T10:23:35;16.60;98.20
17405;DHT22;8820;54.604;18.226;2023-03-14T10:26:07;16.90;95.20
17405;DHT22;8820;54.604;18.226;2023-03-14T10:28:40;17.50;88.60
17405;DHT22;8820;54.604;18.226;2023-03-14T10:31:11;16.50;92.00
17405;DHT22;8820;54.604;18.226;2023-03-14T10:33:41;16.40;94.40
17405;DHT22;8820;54.604;18.226;2023-03-14T10:36:19;16.50;94.30
17405;DHT22;8820;54.604;18.226;2023-03-14T10:38:50;16.50;93.00
17405;DHT22;8820;54.604;18.226;2023-03-14T10:41:25;15.90;95.50
17405;DHT22;8820;54.604;18.226;2023-03-14T10:43:57;15.80;97.80
17405;DHT22;8820;54.604;18.226;2023-03-14T10:46:31;16.00;95.80
17405;DHT22;8820;54.604;18.226;2023-03-14T10:49:27;16.60;93.20
17405;DHT22;8820;54.604;18.226;2023-03-14T10:52:02;16.20;93.40
17405;DHT22;8820;54.604;18.226;2023-03-14T10:54:31;16.20;93.80
17405;DHT22;8820;54.604;18.226;2023-03-14T10:57:01;15.80;95.40
17405;DHT22;8820;54.604;18.226;2023-03-14T10:59:37;15.50;97.80
17405;DHT22;8820;54.604;18.226;2023-03-14T11:02:22;15.40;97.80
17405;DHT22;8820;54.604;18.226;2023-03-14T11:05:04;15.40;96.70
17405;DHT22;8820;54.604;18.226;2023-03-14T11:07:39;15.70;98.30
17405;DHT22;8820;54.604;18.226;2023-03-14T11:10:18;16.30;96.30
17405;DHT22;8820;54.604;18.226;2023-03-14T11:12:59;16.40;92.70
17405;DHT22;8820;54.604;18.226;2023-03-14T11:15:33;16.50;90.80
17405;DHT22;8820;54.604;18.226;2023-03-14T11:18:30;16.40;91.60
17405;DHT22;8820;54.604;18.226;2023-03-14T11:21:08;16.50;89.50
17405;DHT22;8820;54.604;18.226;2023-03-14T11:23:45;16.70;89.90
17405;DHT22;8820;54.604;18.226;2023-03-14T11:26:26;17.80;81.30
17405;DHT22;8820;54.604;18.226;2023-03-14T11:28:58;19.70;69.90
17405;DHT22;8820;54.604;18.226;2023-03-14T11:31:28;19.60;61.80
17405;DHT22;8820;54.604;18.226;2023-03-14T11:34:01;18.40;65.30
17405;DHT22;8820;54.604;18.226;2023-03-14T11:36:41;17.50;72.00
17405;DHT22;8820;54.604;18.226;2023-03-14T11:39:14;17.90;74.20
17405;DHT22;8820;54.604;18.226;2023-03-14T11:41:45;17.50;72.50
17405;DHT22;8820;54.604;18.226;2023-03-14T11:44:18;18.00;73.90
17405;DHT22;8820;54.604;18.226;2023-03-14T11:46:51;19.00;65.50
17405;DHT22;8820;54.604;18.226;2023-03-14T11:49:30;19.70;61.30
17405;DHT22;8820;54.604;18.226;2023-03-14T11:52:08;19.60;61.00
17405;DHT22;8820;54.604;18.226;2023-03-14T11:54:42;20.20;59.40
17405;DHT22;8820;54.604;18.226;2023-03-14T11:57:15;19.80;57.00
17405;DHT22;8820;54.604;18.226;2023-03-14T11:59:50;19.20;59.30
17405;DHT22;8820;54.604;18.226;2023-03-14T12:02:24;18.70;60.60
17405;DHT22;8820;54.604;18.226;2023-03-14T12:05:37;18.00;64.80
17405;DHT22;8820;54.604;18.226;2023-03-14T12:08:29;18.00;65.30
17405;DHT22;8820;54.604;18.226;2023-03-14T12:11:04;18.30;64.20
17405;DHT22;8820;54.604;18.226;2023-03-14T12:13:37;18.30;63.90
17405;DHT22;8820;54.604;18.226;2023-03-14T12:16:25;18.70;61.50
17405;DHT22;8820;54.604;18.226;2023-03-14T12:18:54;18.00;63.70
17405;DHT22;8820;54.604;18.226;2023-03-14T12:21:27;17.60;65.60
17405;DHT22;8820;54.604;18.226;2023-03-14T12:24:19;17.60;66.70
17405;DHT22;8820;54.604;18.226;2023-03-14T12:26:53;17.50;66.30
17405;DHT22;8820;54.604;18.226;2023-03-14T12:29:22;17.20;68.00
17405;DHT22;8820;54.604;18.226;2023-03-14T12:32:09;18.10;66.00
17405;DHT22;8820;54.604;18.226;2023-03-14T12:34:42;18.50;61.20
17405;DHT22;8820;54.604;18.226;2023-03-14T12:37:31;18.10;62.40
17405;DHT22;8820;54.604;18.226;2023-03-14T12:40:19;17.90;64.30
17405;DHT22;8820;54.604;18.226;2023-03-14T12:42:57;17.70;63.70
17405;DHT22;8820;54.604;18.226;2023-03-14T12:45:28;17.50;65.20
17405;DHT22;8820;54.604;18.226;2023-03-14T12:48:07;17.40;66.30
17405;DHT22;8820;54.604;18.226;2023-03-14T12:50:41;17.10;66.70
17405;DHT22;8820;54.604;18.226;2023-03-14T12:53:37;17.20;67.00
17405;DHT22;8820;54.604;18.226;2023-03-14T12:56:20;17.20;66.20
17405;DHT22;8820;54.604;18.226;2023-03-14T13:01:46;18.40;61.70
17405;DHT22;8820;54.604;18.226;2023-03-14T13:04:15;18.00;60.10
17405;DHT22;8820;54.604;18.226;2023-03-14T13:06:57;19.50;59.20
17405;DHT22;8820;54.604;18.226;2023-03-14T13:09:52;22.00;52.50
17405;DHT22;8820;54.604;18.226;2023-03-14T13:12:30;21.40;50.60
17405;DHT22;8820;54.604;18.226;2023-03-14T13:15:13;19.90;53.30
17405;DHT22;8820;54.604;18.226;2023-03-14T13:17:42;22.50;51.90
17405;DHT22;8820;54.604;18.226;2023-03-14T13:20:16;24.60;46.80
17405;DHT22;8820;54.604;18.226;2023-03-14T13:22:48;23.00;46.70
17405;DHT22;8820;54.604;18.226;2023-03-14T13:25:18;23.20;45.30
17405;DHT22;8820;54.604;18.226;2023-03-14T13:27:52;24.60;44.00
17405;DHT22;8820;54.604;18.226;2023-03-14T13:30:25;22.70;45.60
17405;DHT22;8820;54.604;18.226;2023-03-14T13:32:55;22.80;47.50
17405;DHT22;8820;54.604;18.226;2023-03-14T13:35:27;23.40;44.50
17405;DHT22;8820;54.604;18.226;2023-03-14T13:37:57;22.10;45.80
17405;DHT22;8820;54.604;18.226;2023-03-14T13:40:43;20.00;49.70
17405;DHT22;8820;54.604;18.226;2023-03-14T13:43:19;18.90;52.40
17405;DHT22;8820;54.604;18.226;2023-03-14T13:45:53;18.00;54.50
17405;DHT22;8820;54.604;18.226;2023-03-14T13:48:25;17.60;56.10
17405;DHT22;8820;54.604;18.226;2023-03-14T13:50:58;17.20;56.90
17405;DHT22;8820;54.604;18.226;2023-03-14T13:53:28;17.00;57.50
17405;DHT22;8820;54.604;18.226;2023-03-14T13:55:57;16.90;57.30
17405;DHT22;8820;54.604;18.226;2023-03-14T13:58:31;16.90;57.60
17405;DHT22;8820;54.604;18.226;2023-03-14T14:01:03;16.90;58.30
17405;DHT22;8820;54.604;18.226;2023-03-14T14:03:37;16.90;58.30
17405;DHT22;8820;54.604;18.226;2023-03-14T14:06:19;17.10;58.00
17405;DHT22;8820;54.604;18.226;2023-03-14T14:08:50;17.30;58.00
17405;DHT22;8820;54.604;18.226;2023-03-14T14:11:35;17.20;57.80
17405;DHT22;8820;54.604;18.226;2023-03-14T14:14:20;17.20;58.40
17405;DHT22;8820;54.604;18.226;2023-03-14T14:16:51;17.20;58.10
17405;DHT22;8820;54.604;18.226;2023-03-14T14:19:21;17.10;58.00
17405;DHT22;8820;54.604;18.226;2023-03-14T14:21:51;17.20;58.10
17405;DHT22;8820;54.604;18.226;2023-03-14T14:24:22;17.20;56.60
17405;DHT22;8820;54.604;18.226;2023-03-14T14:26:53;17.10;56.10
17405;DHT22;8820;54.604;18.226;2023-03-14T14:29:27;17.00;55.40
17405;DHT22;8820;54.604;18.226;2023-03-14T14:32:08;16.60;55.90
17405;DHT22;8820;54.604;18.226;2023-03-14T14:34:42;16.60;55.80
17405;DHT22;8820;54.604;18.226;2023-03-14T14:37:21;16.60;56.00
17405;DHT22;8820;54.604;18.226;2023-03-14T14:39:55;16.40;56.40
17405;DHT22;8820;54.604;18.226;2023-03-14T14:42:27;16.40;56.40
17405;DHT22;8820;54.604;18.226;2023-03-14T14:44:59;16.60;56.10
17405;DHT22;8820;54.604;18.226;2023-03-14T14:47:31;16.80;55.90
17405;DHT22;8820;54.604;18.226;2023-03-14T14:50:04;16.90;55.40
17405;DHT22;8820;54.604;18.226;2023-03-14T14:52:37;16.70;55.20
17405;DHT22;8820;54.604;18.226;2023-03-14T14:55:17;16.60;55.50
17405;DHT22;8820;54.604;18.226;2023-03-14T14:57:51;16.60;55.50
17405;DHT22;8820;54.604;18.226;2023-03-14T15:00:23;16.60;55.80
17405;DHT22;8820;54.604;18.226;2023-03-14T15:02:54;16.50;55.70
17405;DHT22;8820;54.604;18.226;2023-03-14T15:05:24;16.40;55.70
17405;DHT22;8820;54.604;18.226;2023-03-14T15:07:55;16.30;55.50
17405;DHT22;8820;54.604;18.226;2023-03-14T15:10:25;16.20;55.30
17405;DHT22;8820;54.604;18.226;2023-03-14T15:12:54;15.90;56.10
17405;DHT22;8820;54.604;18.226;2023-03-14T15:15:24;15.80;57.50
17405;DHT22;8820;54.604;18.226;2023-03-14T15:17:52;15.80;58.50
17405;DHT22;8820;54.604;18.226;2023-03-14T15:20:21;15.80;58.90
17405;DHT22;8820;54.604;18.226;2023-03-14T15:22:51;15.80;59.30
17405;DHT22;8820;54.604;18.226;2023-03-14T15:25:21;15.90;59.60
17405;DHT22;8820;54.604;18.226;2023-03-14T15:28:20;15.90;59.40
17405;DHT22;8820;54.604;18.226;2023-03-14T15:30:51;15.90;60.30
17405;DHT22;8820;54.604;18.226;2023-03-14T15:33:20;16.00;60.80
17405;DHT22;8820;54.604;18.226;2023-03-14T15:35:49;15.90;61.10
17405;DHT22;8820;54.604;18.226;2023-03-14T15:38:20;16.10;61.20
17405;DHT22;8820;54.604;18.226;2023-03-14T15:40:50;15.90;61.50
17405;DHT22;8820;54.604;18.226;2023-03-14T15:43:19;15.70;62.80
17405;DHT22;8820;54.604;18.226;2023-03-14T15:45:49;15.70;63.20
17405;DHT22;8820;54.604;18.226;2023-03-14T15:48:20;15.60;63.60
17405;DHT22;8820;54.604;18.226;2023-03-14T15:50:49;15.50;64.00
17405;DHT22;8820;54.604;18.226;2023-03-14T15:53:18;15.30;65.30
17405;DHT22;8820;54.604;18.226;2023-03-14T15:55:46;15.30;64.80
17405;DHT22;8820;54.604;18.226;2023-03-14T15:58:17;15.30;64.90
17405;DHT22;8820;54.604;18.226;2023-03-14T16:00:49;15.30;63.50
17405;DHT22;8820;54.604;18.226;2023-03-14T16:03:18;15.20;62.20
17405;DHT22;8820;54.604;18.226;2023-03-14T16:05:47;15.20;62.70
17405;DHT22;8820;54.604;18.226;2023-03-14T16:08:16;15.20;61.90
17405;DHT22;8820;54.604;18.226;2023-03-14T16:10:45;15.30;61.60
17405;DHT22;8820;54.604;18.226;2023-03-14T16:13:15;15.30;62.20
17405;DHT22;8820;54.604;18.226;2023-03-14T16:15:54;15.20;62.50